Latest Coastal Weather Observations for Walpole North

IDW60701

Issued at 9:15 am WST Sunday 23 November 2014 (issued every 10 minutes, with the page automatically refreshed every 10 minutes)

About coastal observations | Map of coastal stations | Coastal observations for WA | Marine services | Other Formats
Station Details ID: 009998 Name: NORTH WALPOLE Lat: -34.95 Lon: 116.72 Height: 73.0 m
Data from the previous 72 hours. | See also: Recent months at Walpole North
Date/Time
WST
Temp

°C
Wind Pressure Rain
since 9am
mm
Weather Cloud Vis
km
Sea
Height
m
Swell
Dir
 
Speed
knots
Gust
knots
hPa Trend Height
m
Period
s
Dir
23/09:00am 14.8 SW 12 23 1016.0 - 0.6 - - - - - - -
23/08:30am 14.5 SW 12 22 1015.9 - 0.6 - - - - - - -
23/08:00am 14.9 SW 12 19 1015.6 - 0.6 - - - - - - -
23/07:30am 14.5 SW 11 18 1015.2 - 0.6 - - - - - - -
23/07:00am 13.9 WSW 11 18 1014.7 - 0.6 - - - - - - -
23/06:30am 13.4 WSW 12 22 1014.4 - 0.6 - - - - - - -
23/06:00am 13.5 WSW 11 17 1013.8 - 0.6 - - - - - - -
23/05:30am 13.3 SW 13 22 1013.2 - 0.6 - - - - - - -
23/05:00am 13.5 WSW 11 19 1012.7 - 0.6 - - - - - - -
23/04:30am 13.7 WSW 13 21 1012.3 - 0.6 - - - - - - -
23/04:00am 13.4 WSW 10 16 1012.1 - 0.6 - - - - - - -
23/03:30am 12.7 WSW 10 18 1011.8 - 0.6 - - - - - - -
23/03:18am 12.9 WSW 17 22 1011.7 - 0.6 - - - - - - -
23/03:00am 12.7 WNW 5 8 1011.5 - 0.2 - - - - - - -
23/02:30am 12.3 WNW 6 11 1011.6 - 0.2 - - - - - - -
23/02:00am 12.3 WSW 12 22 1011.7 - 0.2 - - - - - - -
23/01:50am 12.6 WSW 15 26 1011.8 - 0.2 - - - - - - -
23/01:30am 13.6 WNW 6 10 1011.3 - 0.2 - - - - - - -
23/01:00am 13.3 NNW 8 11 1011.6 - 0.2 - - - - - - -
23/12:30am 13.5 WNW 7 10 1011.8 - 0.2 - - - - - - -
23/12:00am 13.7 NW 8 10 1011.9 - 0.2 - - - - - - -
 
Date/Time
WST
Temp

°C
Wind Pressure Rain
since 9am
mm
Weather Cloud Vis
km
Sea
Height
m
Swell
Dir
 
Speed
knots
Gust
knots
hPa Trend Height
m
Period
s
Dir
22/11:30pm 13.8 W 7 13 1012.2 - 0.2 - - - - - - -
22/11:00pm 13.6 W 7 12 1012.5 - 0.2 - - - - - - -
22/10:30pm 13.5 W 8 14 1012.7 - 0.2 - - - - - - -
22/10:00pm 13.1 WNW 5 8 1012.7 - 0.2 - - - - - - -
22/09:30pm 13.5 NW 9 12 1012.6 - 0.2 - - - - - - -
22/09:00pm 14.2 NW 11 14 1012.7 - 0.2 - - - - - - -
22/08:30pm 14.4 WNW 7 13 1012.6 - 0.2 - - - - - - -
22/08:00pm 14.4 W 7 12 1012.6 - 0.2 - - - - - - -
22/07:30pm 14.3 W 11 16 1012.5 - 0.2 - - - - - - -
22/07:00pm 15.0 W 8 14 1012.4 - 0.2 - - - - - - -
22/06:30pm 15.2 WNW 11 19 1012.2 - 0.2 - - - - - - -
22/06:00pm 15.5 W 11 21 1012.0 - 0.2 - - - - - - -
22/05:30pm 16.4 WNW 12 17 1011.5 - 0.2 - - - - - - -
22/05:00pm 16.0 W 10 17 1011.7 - 0.2 - - - - - - -
22/04:30pm 16.3 W 11 18 1011.8 - 0.2 - - - - - - -
22/04:00pm 18.0 W 14 20 1011.5 - 0.2 - - - - - - -
22/03:30pm 17.7 W 13 21 1011.6 - 0.2 - - - - - - -
22/03:00pm 18.3 W 11 16 1011.8 - 0.2 - - - - - - -
22/02:30pm 16.9 W 12 24 1012.1 - 0.2 - - - - - - -
22/02:00pm 17.4 WNW 13 21 1012.0 - 0.2 - - - - - - -
22/01:30pm 17.9 W 13 21 1012.1 - 0.2 - - - - - - -
22/01:00pm 17.9 WSW 13 19 1012.1 - 0.2 - - - - - - -
22/12:30pm 17.9 W 12 19 1012.2 - 0.2 - - - - - - -
22/12:00pm 18.4 W 10 20 1012.3 - 0.2 Rain - - - - - -
22/11:30am 17.6 W 9 14 1012.3 - 0.0 - - - - - - -
22/11:00am 16.7 WSW 10 15 1012.4 - 0.0 - - - - - - -
22/10:30am 16.5 W 8 15 1012.4 - 0.0 - - - - - - -
22/10:00am 16.8 WSW 9 15 1012.4 - 0.0 - - - - - - -
22/09:30am 15.9 WSW 10 15 1012.3 - 0.0 - - - - - - -
22/09:00am 15.7 SW 11 16 1012.3 - 3.8 - - - - - - -
22/08:30am 15.2 W 7 11 1012.4 - 3.8 - - - - - - -
22/08:00am 14.3 W 5 7 1012.3 - 3.8 - - - - - - -
22/07:30am 13.5 W 5 8 1012.0 - 3.8 - - - - - - -
22/07:00am 13.3 W 3 5 1011.8 - 3.8 - - - - - - -
22/06:30am 13.0 WSW 5 9 1011.6 - 3.8 - - - - - - -
22/06:00am 12.5 WNW 5 8 1011.2 - 3.6 Rain - - - - - -
22/05:30am 12.3 WNW 4 5 1010.9 - 3.4 - - - - - - -
22/05:00am 12.3 WNW 4 6 1010.7 - 3.4 - - - - - - -
22/04:30am 12.3 WNW 7 10 1010.4 - 3.0 - - - - - - -
22/04:00am 12.6 W 5 7 1010.1 - 2.6 - - - - - - -
22/03:30am 12.4 W 5 10 1010.0 - 2.6 - - - - - - -
22/03:00am 12.4 W 3 6 1009.9 - 2.6 Recent precip. - - - - - -
22/02:30am 12.7 NW 6 8 1009.8 - 2.4 - - - - - - -
22/02:00am 13.0 WNW 6 8 1009.8 - 1.8 - - - - - - -
22/01:30am 12.8 NW 6 8 1010.0 - 1.8 - - - - - - -
22/01:00am 13.0 WNW 6 9 1010.2 - 1.8 - - - - - - -
22/12:30am 13.5 NW 5 8 1010.0 - 1.6 - - - - - - -
22/12:00am 13.5 NW 6 8 1010.2 - 1.6 - - - - - - -
 
Date/Time
WST
Temp

°C
Wind Pressure Rain
since 9am
mm
Weather Cloud Vis
km
Sea
Height
m
Swell
Dir
 
Speed
knots
Gust
knots
hPa Trend Height
m
Period
s
Dir
21/11:30pm 14.1 WNW 6 10 1010.5 - 1.6 - - - - - - -
21/11:00pm 13.9 W 5 9 1010.5 - 1.6 - - - - - - -
21/10:30pm 13.8 W 6 9 1010.5 - 1.6 - - - - - - -
21/10:00pm 13.7 WNW 7 9 1010.4 - 1.6 - - - - - - -
21/09:30pm 13.8 WNW 8 11 1010.6 - 1.6 - - - - - - -
21/09:00pm 13.5 NW 7 9 1010.7 - 1.6 Recent precip. - - - - - -
21/08:30pm 13.5 NW 8 11 1010.7 - 1.6 - - - - - - -
21/08:00pm 13.4 NW 8 11 1010.5 - 1.0 - - - - - - -
21/07:30pm 13.7 NW 8 9 1010.3 - 0.8 - - - - - - -
21/07:00pm 14.0 W 6 11 1010.1 - 0.8 - - - - - - -
21/06:30pm 14.7 W 8 16 1009.9 - 0.8 - - - - - - -
21/06:00pm 14.9 W 6 11 1009.6 - 0.8 - - - - - - -
21/05:30pm 14.5 WNW 6 7 1009.5 - 0.8 - - - - - - -
21/05:00pm 14.2 W 8 14 1009.6 - 0.8 - - - - - - -
21/04:30pm 15.6 W 9 14 1009.3 - 0.8 - - - - - - -
21/04:00pm 15.5 W 9 13 1009.3 - 0.8 - - - - - - -
21/03:30pm 14.7 W 12 21 1009.4 - 0.8 - - - - - - -
21/03:00pm 15.0 W 12 17 1009.2 - 0.4 Rain - - - - - -
21/02:30pm 19.2 WSW 14 19 1008.6 - 0.2 - - - - - - -
21/02:00pm 18.4 WNW 13 23 1008.6 - 0.2 - - - - - - -
21/01:30pm 18.9 W 13 22 1008.6 - 0.0 - - - - - - -
21/01:00pm 16.7 W 15 26 1009.0 - 0.0 - - - - - - -
21/12:30pm 17.3 W 9 14 1009.1 - 0.0 - - - - - - -
21/12:13pm 16.4 WSW 16 24 1009.3 - 0.0 - - - - - - -
21/12:00pm 17.0 W 8 13 1009.2 - 0.0 - - - - - - -
21/11:30am 16.2 W 13 19 1009.3 - 0.0 - - - - - - -
21/11:00am 16.9 W 13 24 1009.5 - 0.0 - - - - - - -
21/10:51am 15.6 W 15 25 1009.5 - 0.0 - - - - - - -
21/10:30am 18.0 W 12 21 1008.8 - 0.0 - - - - - - -
21/10:13am 17.8 W 15 27 1008.8 - 0.0 - - - - - - -
21/10:00am 17.6 W 14 23 1009.0 - 0.0 - - - - - - -
21/09:30am 17.3 WNW 13 22 1008.8 - 0.0 - - - - - - -
21/09:00am 17.2 W 9 17 1008.8 - 8.2 - - - - - - -
21/08:30am 16.3 WSW 12 21 1008.8 - 8.2 - - - - - - -
21/08:00am 15.7 W 9 15 1008.6 - 8.2 - - - - - - -
21/07:30am 15.6 WNW 9 16 1008.4 - 8.2 - - - - - - -
21/07:00am 15.1 W 7 15 1008.2 - 8.2 - - - - - - -
21/06:30am 15.1 W 7 11 1008.1 - 8.2 - - - - - - -
21/06:00am 14.7 W 6 11 1007.7 - 8.2 - - - - - - -
21/05:30am 14.4 W 6 11 1007.6 - 8.2 - - - - - - -
21/05:00am 14.3 W 6 9 1007.4 - 8.2 - - - - - - -
21/04:30am 14.2 W 5 9 1007.1 - 8.2 - - - - - - -
21/04:00am 14.4 W 7 11 1007.0 - 8.2 - - - - - - -
21/03:30am 14.4 W 6 9 1007.1 - 8.2 - - - - - - -
21/03:00am 14.3 W 5 7 1006.9 - 8.2 - - - - - - -
21/02:30am 14.3 W 5 8 1006.8 - 8.2 - - - - - - -
21/02:00am 14.4 W 6 11 1006.9 - 8.2 - - - - - - -
21/01:30am 14.5 W 6 11 1007.0 - 8.2 - - - - - - -
21/01:00am 15.0 W 5 8 1007.2 - 8.2 - - - - - - -
21/12:30am 15.1 WNW 7 10 1007.2 - 8.0 - - - - - - -
21/12:00am 15.0 NW 10 15 1007.3 - 8.0 Recent precip. - - - - - -
 
Date/Time
WST
Temp

°C
Wind Pressure Rain
since 9am
mm
Weather Cloud Vis
km
Sea
Height
m
Swell
Dir
 
Speed
knots
Gust
knots
hPa Trend Height
m
Period
s
Dir
20/11:30pm 14.8 W 5 6 1007.5 - 7.2 - - - - - - -
20/11:00pm 14.9 WNW 6 8 1007.7 - 4.8 - - - - - - -
20/10:30pm 14.8 NW 11 16 1007.8 - 4.6 - - - - - - -
20/10:00pm 14.6 WNW 13 19 1008.2 - 4.6 - - - - - - -
20/09:30pm 15.2 W 10 15 1008.5 - 3.8 - - - - - - -
20/09:00pm 16.5 NW 14 19 1007.7 - 0.2 - - - - - - -
20/08:30pm 15.8 NW 7 13 1007.9 - 0.2 - - - - - - -
20/08:00pm 16.0 NW 12 16 1007.8 - 0.2 - - - - - - -
20/07:30pm 17.1 WNW 11 16 1007.6 - 0.2 - - - - - - -
20/07:00pm 17.2 NW 14 21 1007.7 - 0.2 - - - - - - -
20/06:30pm 17.9 WNW 13 22 1007.5 - 0.2 - - - - - - -
20/06:00pm 18.0 NW 16 23 1007.2 - 0.2 - - - - - - -
20/05:30pm 18.0 WNW 16 24 1007.3 - 0.2 - - - - - - -
20/05:09pm 17.8 NW 18 32 1007.4 - 0.2 - - - - - - -
20/05:00pm 17.5 WNW 16 23 1007.3 - 0.2 - - - - - - -
20/04:37pm 17.4 WNW 15 25 1007.5 - 0.2 - - - - - - -
20/04:30pm 17.9 WNW 16 22 1007.4 - 0.2 - - - - - - -
20/04:00pm 19.0 WNW 14 22 1007.3 - 0.2 - - - - - - -
20/03:30pm 20.0 WNW 14 21 1007.1 - 0.2 - - - - - - -
20/03:03pm 20.7 WNW 17 27 1007.0 - 0.2 - - - - - - -
20/03:00pm 20.7 WNW 18 27 1007.0 - 0.2 - - - - - - -
20/02:30pm 21.6 WNW 21 31 1007.1 - 0.2 - - - - - - -
20/02:00pm 19.8 WNW 18 30 1007.2 - 0.2 - - - - - - -
20/01:33pm 20.9 WNW 19 30 1007.5 - 0.0 - - - - - - -
20/01:30pm 19.9 WNW 18 25 1007.5 - 0.0 - - - - - - -
20/01:09pm 20.2 WNW 16 27 1007.7 - 0.0 - - - - - - -
20/01:00pm 20.4 WNW 14 23 1008.0 - 0.0 - - - - - - -
20/12:31pm 18.9 NW 16 29 1007.9 - 0.0 - - - - - - -
20/12:30pm 19.1 NW 15 23 1008.2 - 0.0 - - - - - - -
20/12:00pm 18.3 WNW 14 23 1008.6 - 0.0 - - - - - - -
20/11:30am 18.6 WNW 15 23 1009.2 - 0.0 - - - - - - -
20/11:00am 18.9 WNW 16 22 1009.3 - 0.0 - - - - - - -
20/10:30am 19.0 WNW 13 23 1009.6 - 0.0 - - - - - - -
20/10:00am 19.4 WNW 17 27 1009.2 - 0.0 - - - - - - -
20/09:54am 18.8 WNW 15 27 1009.4 - 0.0 - - - - - - -
20/09:30am 18.1 WNW 13 26 1009.8 - 0.0 - - - - - - -

Other Formats:

Comma delimited format used in spreadsheet applications
http://www.bom.gov.au/fwo/IDW60701/IDW60701.95647.axf

JavaScript Object Notation format (JSON) in row-major order
http://www.bom.gov.au/fwo/IDW60701/IDW60701.95647.json